Terminal Aerodrome Forecast
Issued by NWS

Current Version | Previous Version | Text Only | Print | Product List | Glossary On
Versions: 1 2 3 4 5 6 7 8 9 10 11 12 13 14 15 16 17 18 19 20 21 22 23 24 25 26 27 28 29
582
FTUS42 KKEY 071933 AAA
TAFMTH
TAF AMD
KMTH 071933Z 0720/0818 VRB05KT P6SM SCT008 SCT040 SCT050
     FM080000 02004KT P6SM SCT008 SCT030 BKN050
      TEMPO 0800/0804 BKN008=

USA.gov is the U.S. government's official web portal to all federal, state and local government web resources and services.